Time;durP1;ratioP1;P1;durP2;ratioP2;P2;SDS_P1;SDS_P2;PMS_P1;PMS_P2;Temp;Humidity;BMP_temperature;BMP_pressure;BME280_temperature;BME280_humidity;BME280_pressure;Samples;Min_cycle;Max_cycle;Signal;HPM_P1;HPM_P2
2022/10/31 00:01:23;;;;;;;18.15;9.82;;;;;;;7.33;63.49;93914.47;5070284;28;20036;-34
2022/10/31 00:03:49;;;;;;;16.10;8.55;;;;;;;7.33;63.42;93914.47;5070827;28;20036;-34
2022/10/31 00:06:17;;;;;;;15.00;9.00;;;;;;;7.19;63.45;93912.91;5071527;28;20558;-34
2022/10/31 00:08:46;;;;;;;14.20;8.40;;;;;;;7.02;64.45;93917.81;5069500;28;20028;-35
2022/10/31 00:11:12;;;;;;;11.32;7.40;;;;;;;6.93;64.83;93915.41;5065005;28;20108;-35
2022/10/31 00:13:37;;;;;;;12.48;7.25;;;;;;;6.87;64.67;93924.44;5068420;28;20450;-35
2022/10/31 00:16:03;;;;;;;14.35;7.22;;;;;;;6.80;64.79;93919.50;5066129;28;20021;-34
2022/10/31 00:18:28;;;;;;;16.25;8.00;;;;;;;6.79;64.89;93928.25;5071316;28;20091;-35
2022/10/31 00:21:03;;;;;;;15.13;7.97;;;;;;;6.77;64.98;93908.81;5067932;28;20028;-35
2022/10/31 00:23:29;;;;;;;10.90;6.90;;;;;;;7.00;65.16;93925.81;5068858;28;20035;-35
2022/10/31 00:26:00;;;;;;;11.95;6.32;;;;;;;6.98;66.40;93922.84;5065593;28;20025;-35
2022/10/31 00:28:25;;;;;;;11.93;7.28;;;;;;;7.12;65.78;93918.97;5066075;28;20023;-35
2022/10/31 00:30:51;;;;;;;11.18;7.18;;;;;;;7.09;66.09;93923.47;5066286;28;20033;-35
2022/10/31 00:33:16;;;;;;;12.05;6.68;;;;;;;7.13;66.38;93917.69;5068346;28;20082;-35
2022/10/31 00:35:42;;;;;;;8.80;5.97;;;;;;;7.01;66.28;93921.81;5069872;28;20050;-35
2022/10/31 00:38:07;;;;;;;9.52;6.43;;;;;;;7.10;65.25;93916.00;5065749;28;20036;-35
2022/10/31 00:40:32;;;;;;;10.48;7.20;;;;;;;7.08;64.15;93924.72;5070723;28;20017;-35
2022/10/31 00:42:58;;;;;;;10.68;7.32;;;;;;;6.93;65.00;93923.66;5070209;28;20032;-35
2022/10/31 00:45:23;;;;;;;9.85;7.45;;;;;;;6.65;65.75;93918.38;5069615;28;20046;-35
2022/10/31 00:47:49;;;;;;;12.32;7.50;;;;;;;6.86;65.64;93917.44;5068706;28;20028;-35
2022/10/31 00:50:14;;;;;;;9.75;7.10;;;;;;;6.88;64.95;93922.44;5070727;28;20096;-35
2022/10/31 00:52:40;;;;;;;15.82;8.20;;;;;;;6.77;64.84;93915.06;5069098;28;20020;-35
2022/10/31 00:55:05;;;;;;;17.38;7.60;;;;;;;7.01;64.70;93919.81;5068068;28;20025;-35
2022/10/31 00:57:31;;;;;;;14.95;7.68;;;;;;;6.97;64.60;93919.38;5070204;28;20055;-35
2022/10/31 00:59:56;;;;;;;10.80;6.60;;;;;;;7.09;64.37;93915.25;5070570;28;20039;-35
2022/10/31 01:02:22;;;;;;;12.73;8.02;;;;;;;6.99;64.33;93918.84;5061761;28;20107;-35
2022/10/31 01:04:47;;;;;;;15.85;8.75;;;;;;;7.14;63.62;93908.94;5064956;28;20086;-35
2022/10/31 01:07:13;;;;;;;12.20;8.00;;;;;;;7.01;63.46;93914.31;5069468;28;20458;-35
2022/10/31 01:09:39;;;;;;;15.50;7.97;;;;;;;7.00;63.37;93921.06;5069863;28;20035;-35
2022/10/31 01:12:05;;;;;;;16.77;9.02;;;;;;;6.80;64.48;93921.50;5070495;28;20091;-35
2022/10/31 01:14:30;;;;;;;12.63;7.80;;;;;;;7.01;64.03;93922.56;5065218;28;20644;-35
2022/10/31 01:16:55;;;;;;;13.10;8.82;;;;;;;7.00;64.02;93932.03;5070246;28;20025;-35
2022/10/31 01:19:21;;;;;;;15.75;8.60;;;;;;;6.79;64.34;93931.00;5067297;28;20597;-35
2022/10/31 01:21:46;;;;;;;11.45;7.25;;;;;;;6.99;63.89;93929.81;5070519;28;20046;-35
2022/10/31 01:24:12;;;;;;;10.35;6.80;;;;;;;6.98;63.21;93926.31;5070186;28;20148;-35
2022/10/31 01:26:37;;;;;;;18.02;8.23;;;;;;;7.06;63.06;93932.72;5068859;28;20016;-35
2022/10/31 01:29:06;;;;;;;13.05;7.72;;;;;;;7.14;63.53;93930.91;5068657;28;20020;-35
2022/10/31 01:31:35;;;;;;;15.25;8.60;;;;;;;7.00;63.92;93934.78;5065708;28;20028;-35
2022/10/31 01:34:00;;;;;;;16.42;11.50;;;;;;;6.97;64.63;93933.09;5069497;28;20508;-35
2022/10/31 01:36:29;;;;;;;15.90;10.25;;;;;;;7.05;64.64;93936.00;5068621;28;20100;-35
2022/10/31 01:38:57;;;;;;;40.95;14.85;;;;;;;6.95;64.76;93929.38;5069663;28;20448;-35
2022/10/31 01:41:26;;;;;;;39.60;19.35;;;;;;;7.17;64.42;93929.16;5069664;28;20029;-35
2022/10/31 01:43:55;;;;;;;27.08;14.35;;;;;;;7.23;64.36;93930.59;5064849;28;20029;-35
2022/10/31 01:46:25;;;;;;;20.77;11.68;;;;;;;7.19;64.79;93932.84;5069561;28;20047;-35
2022/10/31 01:48:53;;;;;;;24.13;12.50;;;;;;;6.74;66.05;93912.56;5048527;28;20017;-35
2022/10/31 01:51:20;;;;;;;25.20;12.85;;;;;;;7.19;65.49;93924.59;5068535;28;20024;-35
2022/10/31 01:53:47;;;;;;;21.95;13.02;;;;;;;7.13;65.25;93934.91;5068269;28;20032;-35
2022/10/31 01:56:13;;;;;;;27.92;13.18;;;;;;;7.12;65.72;93938.19;5046557;28;20029;-35
2022/10/31 01:58:40;;;;;;;20.92;12.23;;;;;;;7.11;65.75;93931.94;5050927;28;20090;-36
2022/10/31 02:01:05;;;;;;;18.00;11.82;;;;;;;7.10;66.15;93924.97;5065906;28;20484;-36
2022/10/31 02:03:31;;;;;;;17.98;10.43;;;;;;;7.20;66.63;93925.34;5051490;28;20055;-36
2022/10/31 02:05:57;;;;;;;14.95;9.13;;;;;;;7.26;67.45;93937.03;5052050;28;20401;-35
2022/10/31 02:08:25;;;;;;;16.55;9.68;;;;;;;7.46;66.34;93931.06;5069658;28;20024;-36
2022/10/31 02:10:51;;;;;;;13.50;9.30;;;;;;;7.55;65.55;93919.72;5069221;28;20126;-35
2022/10/31 02:13:17;;;;;;;16.17;9.00;;;;;;;7.52;64.79;93916.00;5069284;28;20025;-36
2022/10/31 02:15:44;;;;;;;17.23;9.30;;;;;;;7.58;64.48;93929.66;5056133;28;20025;-35
2022/10/31 02:18:10;;;;;;;18.88;9.73;;;;;;;7.66;64.03;93927.84;5055528;28;20043;-35
2022/10/31 02:20:53;;;;;;;15.65;9.05;;;;;;;7.48;64.93;93929.28;5055568;28;20528;-35
2022/10/31 02:24:00;;;;;;;13.90;9.07;;;;;;;7.59;64.23;93923.69;5072481;28;20114;-35
2022/10/31 02:26:44;;;;;;;12.77;7.32;;;;;;;7.49;64.63;93927.28;5066560;28;20037;-35
2022/10/31 02:29:31;;;;;;;13.65;7.85;;;;;;;7.58;64.50;93930.41;5072253;28;20032;-35
2022/10/31 02:32:07;;;;;;;14.10;7.70;;;;;;;7.51;64.02;93931.00;5069694;28;20028;-35
2022/10/31 02:34:44;;;;;;;14.35;8.75;;;;;;;7.49;64.01;93939.00;5073093;28;20516;-35
2022/10/31 02:37:28;;;;;;;14.45;7.60;;;;;;;7.57;64.30;93936.44;5073235;28;20111;-35
2022/10/31 02:40:09;;;;;;;23.17;12.18;;;;;;;7.63;64.73;93932.38;5069744;28;20036;-35
2022/10/31 02:42:43;;;;;;;22.67;12.68;;;;;;;7.63;65.03;93937.88;5055118;28;20027;-35
2022/10/31 02:45:17;;;;;;;19.60;11.73;;;;;;;7.57;65.29;93942.69;5054813;28;20039;-35
2022/10/31 02:47:44;;;;;;;17.20;9.63;;;;;;;7.69;65.32;93945.31;5044140;28;20056;-35
2022/10/31 02:50:18;;;;;;;11.85;8.90;;;;;;;7.54;66.12;93938.22;5054453;28;20032;-35
2022/10/31 02:52:43;;;;;;;18.58;9.23;;;;;;;7.58;66.18;93944.16;5050197;28;20416;-35
2022/10/31 02:55:24;;;;;;;12.43;8.10;;;;;;;7.53;66.06;93946.97;5071037;28;20017;-35
2022/10/31 02:57:51;;;;;;;15.07;8.52;;;;;;;7.48;66.50;93947.78;5070460;28;20051;-35
2022/10/31 03:00:17;;;;;;;16.45;9.18;;;;;;;7.59;66.50;93953.91;5073037;28;20031;-35
2022/10/31 03:03:05;;;;;;;11.68;7.55;;;;;;;7.68;66.95;93952.06;5072839;28;20012;-35
2022/10/31 03:06:01;;;;;;;12.85;7.80;;;;;;;7.80;67.32;93950.63;5072180;28;20024;-35
2022/10/31 03:08:52;;;;;;;14.55;8.02;;;;;;;7.82;67.71;93953.63;5072425;28;20522;-35
2022/10/31 03:11:21;;;;;;;8.55;6.45;;;;;;;7.76;68.26;93959.19;5054474;28;20095;-34
2022/10/31 03:13:52;;;;;;;13.05;6.88;;;;;;;7.69;69.04;93957.03;5072687;28;20103;-35
2022/10/31 03:16:25;;;;;;;9.27;6.07;;;;;;;7.88;68.99;93957.06;5072737;28;20027;-35
2022/10/31 03:19:06;;;;;;;10.20;6.53;;;;;;;7.82;69.28;93970.84;5054492;28;20029;-34
2022/10/31 03:21:45;;;;;;;12.30;7.97;;;;;;;7.78;68.29;93966.91;5054617;28;20040;-35
2022/10/31 03:24:11;;;;;;;10.57;7.75;;;;;;;7.96;67.99;93964.19;5072504;28;20460;-35
2022/10/31 03:26:40;;;;;;;13.63;8.70;;;;;;;8.02;67.97;93964.88;5053417;28;20078;-35
2022/10/31 03:29:08;;;;;;;12.90;9.07;;;;;;;8.02;67.50;93961.38;5054213;28;20025;-35
2022/10/31 03:31:36;;;;;;;12.10;8.23;;;;;;;8.13;67.53;93970.22;5054101;28;20140;-35
2022/10/31 03:34:02;;;;;;;14.23;8.70;;;;;;;8.12;67.11;93965.97;5053785;28;20021;-35
2022/10/31 03:36:30;;;;;;;15.02;8.25;;;;;;;8.19;66.50;93972.88;5071604;28;20029;-35
2022/10/31 03:38:57;;;;;;;13.23;8.25;;;;;;;8.22;66.56;93969.09;5053786;28;20028;-35
2022/10/31 03:41:25;;;;;;;15.45;8.80;;;;;;;8.11;66.98;93969.25;5053840;28;20025;-35
2022/10/31 03:44:01;;;;;;;10.65;7.07;;;;;;;7.92;67.72;93969.25;5054526;28;20408;-35
2022/10/31 03:46:26;;;;;;;13.10;8.25;;;;;;;7.96;67.10;93972.44;5069771;28;20025;-35
2022/10/31 03:48:52;;;;;;;12.10;8.13;;;;;;;8.06;66.57;93976.31;5045110;28;20170;-35
2022/10/31 03:51:29;;;;;;;10.60;7.72;;;;;;;8.15;66.34;93977.94;5071458;28;20036;-35
2022/10/31 03:54:02;;;;;;;15.00;9.23;;;;;;;8.08;66.71;93975.78;5069034;28;20086;-36
2022/10/31 03:56:37;;;;;;;15.55;8.43;;;;;;;8.04;67.05;93973.34;5053008;28;20106;-35
2022/10/31 03:59:16;;;;;;;11.68;8.23;;;;;;;8.15;66.92;93970.44;5053532;28;20151;-35
2022/10/31 04:01:43;;;;;;;;;;;;;;;8.28;66.59;93973.28;5054430;28;20467;-35
2022/10/31 04:04:09;;;;;;;23.85;8.35;;;;;;;8.22;66.77;93971.84;5047535;28;20403;-35
2022/10/31 04:06:36;;;;;;;13.63;7.70;;;;;;;8.21;67.39;93971.09;5053691;28;20024;-35
2022/10/31 04:09:04;;;;;;;15.32;8.13;;;;;;;8.22;67.60;93971.84;5071325;28;20397;-35
2022/10/31 04:11:34;;;;;;;11.10;8.00;;;;;;;8.28;67.68;93972.53;5071239;28;20039;-35
2022/10/31 04:14:01;;;;;;;15.40;8.43;;;;;;;8.31;67.56;93972.25;5050067;28;20511;-35
2022/10/31 04:16:26;;;;;;;16.67;8.35;;;;;;;8.35;67.67;93980.97;5067235;28;20029;-35
2022/10/31 04:18:52;;;;;;;15.02;8.65;;;;;;;8.28;68.11;93978.81;5071276;28;20078;-34
2022/10/31 04:21:17;;;;;;;31.20;18.83;;;;;;;8.25;68.17;93990.84;5050695;28;20032;-34
2022/10/31 04:23:43;;;;;;;47.92;25.50;;;;;;;8.28;68.30;93992.56;5066235;28;20021;-35
2022/10/31 04:26:12;;;;;;;36.92;20.77;;;;;;;8.33;67.84;93991.75;5070729;28;20031;-35
2022/10/31 04:28:37;;;;;;;39.33;22.20;;;;;;;8.15;68.35;93994.44;5070869;28;20012;-34
2022/10/31 04:31:03;;;;;;;42.70;20.23;;;;;;;8.09;68.56;94000.03;5070607;28;20024;-35
2022/10/31 04:33:28;;;;;;;37.35;20.90;;;;;;;7.87;69.20;93994.78;5070623;28;20055;-35
2022/10/31 04:35:54;;;;;;;41.58;21.05;;;;;;;7.61;70.12;94003.59;5063073;28;20019;-35
2022/10/31 04:38:19;;;;;;;32.42;17.55;;;;;;;7.87;69.55;94000.28;5069530;28;20461;-35
2022/10/31 04:40:45;;;;;;;24.10;14.80;;;;;;;8.01;68.43;93995.63;5070747;28;20024;-34
2022/10/31 04:43:10;;;;;;;21.88;12.20;;;;;;;8.00;67.24;93996.88;5070463;28;20047;-35
2022/10/31 04:45:37;;;;;;;30.27;13.77;;;;;;;7.94;67.47;93999.72;5070574;28;20082;-35
2022/10/31 04:48:02;;;;;;;19.17;13.75;;;;;;;7.89;67.42;94006.03;5069929;28;20031;-35
2022/10/31 04:50:28;;;;;;;19.08;12.25;;;;;;;7.95;67.38;94006.69;5070535;28;20025;-35
2022/10/31 04:52:53;;;;;;;22.90;13.73;;;;;;;7.83;67.51;94001.84;5070205;28;20468;-35
2022/10/31 04:55:19;;;;;;;23.88;13.50;;;;;;;7.82;67.48;94003.84;5069973;28;20082;-35
2022/10/31 04:57:46;;;;;;;24.73;13.48;;;;;;;7.70;67.65;93990.75;5069904;28;20048;-35
2022/10/31 05:00:13;;;;;;;26.15;13.65;;;;;;;7.59;67.83;94000.63;5070377;28;20024;-35
2022/10/31 05:02:46;;;;;;;18.95;12.55;;;;;;;7.64;67.58;93996.31;5070078;28;20393;-35
2022/10/31 05:05:13;;;;;;;25.02;12.63;;;;;;;7.59;68.06;94000.63;5070565;28;20020;-35
2022/10/31 05:07:43;;;;;;;24.52;12.73;;;;;;;7.43;68.52;94009.00;5067282;28;20016;-35
2022/10/31 05:10:13;;;;;;;20.77;12.65;;;;;;;7.38;68.54;94012.56;5069298;28;20020;-35
2022/10/31 05:12:48;;;;;;;31.90;17.00;;;;;;;7.42;68.38;94015.78;5069766;28;20030;-35
2022/10/31 05:15:15;;;;;;;37.55;18.95;;;;;;;7.45;68.64;94020.97;5068574;28;20028;-36
2022/10/31 05:17:40;;;;;;;25.08;16.17;;;;;;;7.41;69.04;94015.03;5070304;28;20024;-35
2022/10/31 05:20:06;;;;;;;25.52;13.90;;;;;;;7.45;69.07;94018.22;5070349;28;20466;-35
2022/10/31 05:22:31;;;;;;;21.02;12.05;;;;;;;7.38;69.02;94018.06;5069880;28;20029;-35
2022/10/31 05:24:57;;;;;;;20.88;12.63;;;;;;;7.45;69.38;94023.72;5069974;28;20025;-35
2022/10/31 05:27:22;;;;;;;24.20;11.90;;;;;;;7.41;69.63;94025.25;5067377;28;20377;-35
2022/10/31 05:29:48;;;;;;;17.92;11.23;;;;;;;7.31;70.21;94026.88;5068440;28;20021;-35
2022/10/31 05:32:13;;;;;;;20.15;12.45;;;;;;;7.34;70.25;94034.81;5068369;28;20021;-35
2022/10/31 05:34:38;;;;;;;27.55;13.02;;;;;;;7.37;70.28;94035.78;5069499;28;20491;-35
2022/10/31 05:37:04;;;;;;;17.05;11.30;;;;;;;7.44;69.95;94033.25;5069376;28;20439;-35
2022/10/31 05:39:29;;;;;;;17.23;11.60;;;;;;;7.44;69.53;94040.72;5066597;28;20496;-35
2022/10/31 05:41:55;;;;;;;18.83;11.73;;;;;;;7.23;70.09;94045.19;5069074;28;20028;-35
2022/10/31 05:44:20;;;;;;;24.98;12.63;;;;;;;7.40;69.58;94043.78;5067635;28;21091;-35
2022/10/31 05:46:47;;;;;;;32.67;19.30;;;;;;;7.52;68.74;94039.66;5069524;28;20050;-35
2022/10/31 05:49:12;;;;;;;32.67;19.23;;;;;;;7.68;68.59;94054.47;5068953;28;20042;-35
2022/10/31 05:51:38;;;;;;;46.85;22.35;;;;;;;7.69;68.71;94058.72;5068715;28;20032;-35
2022/10/31 05:54:03;;;;;;;39.35;22.67;;;;;;;7.77;68.93;94058.91;5067077;28;20028;-35
2022/10/31 05:56:29;;;;;;;67.85;24.02;;;;;;;7.77;69.04;94056.91;5068961;28;20488;-35
2022/10/31 05:58:54;;;;;;;34.05;18.92;;;;;;;7.62;68.96;94062.03;5068352;28;20032;-35
2022/10/31 06:01:21;;;;;;;107.32;24.52;;;;;;;7.61;68.77;94055.81;5068773;28;20055;-35
2022/10/31 06:03:47;;;;;;;63.92;22.27;;;;;;;7.75;68.28;94070.41;5068680;28;20506;-35
2022/10/31 06:07:27;;;;;;;42.47;21.15;;;;;;;7.54;68.72;94050.88;5038744;27;1344429;-34
2022/10/31 06:09:52;;;;;;;41.83;22.08;;;;;;;7.63;68.93;94075.25;5086925;28;20059;-34
2022/10/31 06:12:18;;;;;;;114.95;24.10;;;;;;;7.68;68.45;94075.72;5087455;28;20061;-34
2022/10/31 06:14:43;;;;;;;54.33;16.80;;;;;;;7.61;68.39;94080.53;5083453;28;20488;-34
2022/10/31 06:17:08;;;;;;;59.22;17.25;;;;;;;7.54;68.68;94078.34;5085918;28;20020;-34
2022/10/31 06:19:34;;;;;;;34.65;15.95;;;;;;;7.67;68.82;94079.75;5082839;28;20413;-34
2022/10/31 06:21:59;;;;;;;40.80;18.20;;;;;;;7.69;68.85;94085.47;5087254;28;20484;-34
2022/10/31 06:24:25;;;;;;;28.70;15.25;;;;;;;7.78;68.67;94091.34;5083168;28;20033;-34
2022/10/31 06:26:50;;;;;;;62.92;16.77;;;;;;;7.96;68.58;94092.69;5085800;28;20036;-34
2022/10/31 06:29:16;;;;;;;54.72;17.23;;;;;;;8.10;68.80;94097.03;5084468;28;20028;-34
2022/10/31 06:31:41;;;;;;;33.05;14.88;;;;;;;8.23;68.73;94097.13;5084849;28;20047;-34
2022/10/31 06:34:06;;;;;;;38.47;16.35;;;;;;;8.35;69.01;94098.50;5081721;28;20059;-35
2022/10/31 06:36:32;;;;;;;145.35;58.38;;;;;;;8.57;68.51;94095.50;5086499;28;20081;-34
2022/10/31 06:38:57;;;;;;;272.25;107.57;;;;;;;8.90;68.52;94092.28;5085194;28;20111;-34
2022/10/31 06:41:23;;;;;;;167.98;74.15;;;;;;;9.57;67.01;94099.53;5085344;28;20035;-34
2022/10/31 06:43:48;;;;;;;124.95;54.42;;;;;;;10.50;64.84;94096.34;5084925;28;20028;-34
2022/10/31 06:46:14;;;;;;;74.45;39.28;;;;;;;11.58;61.48;94092.91;5083568;28;20032;-34
2022/10/31 06:48:41;;;;;;;62.58;35.75;;;;;;;12.97;57.75;94092.72;5089508;28;20044;-34
2022/10/31 06:51:07;;;;;;;57.25;27.33;;;;;;;14.83;53.33;94091.13;5082756;28;20028;-34
2022/10/31 06:53:32;;;;;;;37.83;22.45;;;;;;;16.57;48.92;94088.69;5084606;28;20028;-35
2022/10/31 06:55:58;;;;;;;33.55;19.40;;;;;;;18.11;44.31;94090.44;5085212;28;20028;-35
2022/10/31 06:58:23;;;;;;;25.58;16.02;;;;;;;19.44;41.43;94087.09;5081000;28;20028;-35
2022/10/31 07:00:49;;;;;;;13.43;9.23;;;;;;;20.63;39.32;94086.94;5087921;28;20028;-35
2022/10/31 07:03:15;;;;;;;13.95;9.07;;;;;;;21.61;37.08;94086.34;5081322;28;20094;-35
2022/10/31 07:05:41;;;;;;;14.23;8.07;;;;;;;22.35;35.73;94084.66;5084725;28;20492;-36
2022/10/31 07:08:09;;;;;;;13.35;8.48;;;;;;;23.31;33.60;94083.97;5104793;28;20036;-35
2022/10/31 07:10:36;;;;;;;19.57;8.90;;;;;;;24.12;32.54;94080.78;5104231;28;20051;-35
2022/10/31 07:13:07;;;;;;;13.98;8.13;;;;;;;23.82;32.37;94081.94;5091747;28;20031;-35
2022/10/31 07:15:35;;;;;;;11.63;7.57;;;;;;;24.27;31.64;94079.47;5089580;28;20487;-35
2022/10/31 07:18:01;;;;;;;31.63;7.70;;;;;;;25.01;30.57;94077.72;5096428;28;20046;-35
2022/10/31 07:20:28;;;;;;;15.93;5.95;;;;;;;25.60;29.78;94072.88;5089221;28;20024;-35
2022/10/31 07:22:54;;;;;;;32.40;6.60;;;;;;;26.29;28.94;94074.75;5089527;28;20111;-35
2022/10/31 07:25:19;;;;;;;47.78;7.97;;;;;;;26.74;28.10;94073.94;5089575;28;20118;-35
2022/10/31 07:27:45;;;;;;;134.48;12.80;;;;;;;27.38;27.23;94065.38;5093424;28;20109;-35
2022/10/31 07:30:12;;;;;;;10.88;6.22;;;;;;;27.81;26.19;94061.41;5091118;28;20028;-36
2022/10/31 07:32:44;;;;;;;20.10;5.60;;;;;;;28.35;25.40;94058.59;5088664;28;20043;-36
2022/10/31 07:35:12;;;;;;;10.07;4.70;;;;;;;28.88;24.96;94069.06;5087810;28;20074;-35
2022/10/31 07:37:38;;;;;;;13.17;4.30;;;;;;;29.35;24.71;94065.72;5071781;28;20028;-36
2022/10/31 07:40:05;;;;;;;9.15;4.88;;;;;;;29.74;24.25;94072.06;5086794;28;20461;-36
2022/10/31 07:42:41;;;;;;;16.65;5.28;;;;;;;30.08;24.29;94068.84;5070361;28;20030;-36
2022/10/31 07:45:09;;;;;;;7.35;4.40;;;;;;;30.56;23.30;94070.31;5086360;28;20024;-36
2022/10/31 07:47:46;;;;;;;4.23;3.47;;;;;;;31.02;23.06;94062.41;5087350;28;21508;-36
2022/10/31 07:50:14;;;;;;;15.57;3.88;;;;;;;31.20;21.68;94057.19;5086236;28;20028;-35
2022/10/31 07:52:39;;;;;;;4.45;3.38;;;;;;;31.20;22.35;94057.19;5084345;28;20032;-36
2022/10/31 07:55:05;;;;;;;6.55;3.70;;;;;;;31.27;21.97;94062.38;5085939;28;20046;-36
2022/10/31 07:57:31;;;;;;;12.15;3.53;;;;;;;31.21;21.25;94058.63;5082893;28;20055;-36
2022/10/31 07:59:56;;;;;;;4.05;3.63;;;;;;;31.40;21.48;94063.44;5084704;28;20057;-44
2022/10/31 08:02:22;;;;;;;5.47;3.15;;;;;;;31.42;21.48;94049.94;5081116;28;20020;-40
2022/10/31 08:04:48;;;;;;;3.53;3.15;;;;;;;31.49;20.65;94064.41;5083730;28;20097;-36
2022/10/31 08:07:13;;;;;;;5.28;3.50;;;;;;;31.62;21.03;94061.16;5084196;28;20052;-36
2022/10/31 08:09:39;;;;;;;5.40;3.30;;;;;;;31.82;20.69;94064.50;5085606;28;20032;-33
2022/10/31 08:12:05;;;;;;;10.38;3.60;;;;;;;31.67;20.59;94053.41;5088544;28;20069;-33
2022/10/31 08:14:30;;;;;;;8.05;3.63;;;;;;;31.91;20.89;94057.59;5088324;28;20409;-33
2022/10/31 08:16:56;;;;;;;9.38;3.35;;;;;;;32.11;20.25;94048.81;5083113;28;20476;-34
2022/10/31 08:19:21;;;;;;;4.38;3.20;;;;;;;32.25;19.71;94057.69;5084485;28;20028;-34
2022/10/31 08:21:50;;;;;;;6.15;3.55;;;;;;;31.60;20.42;94043.25;5082885;28;20682;-34
2022/10/31 08:24:16;;;;;;;8.82;3.80;;;;;;;31.61;20.29;94050.41;5084978;28;20107;-34
2022/10/31 08:26:41;;;;;;;4.07;3.38;;;;;;;31.79;20.95;94051.59;5082214;28;20029;-34
2022/10/31 08:29:07;;;;;;;7.10;3.63;;;;;;;31.58;21.25;94057.50;5078897;28;20031;-34
2022/10/31 08:31:32;;;;;;;4.70;2.83;;;;;;;31.82;20.66;94055.22;5079968;28;20034;-33
2022/10/31 08:33:57;;;;;;;28.73;5.32;;;;;;;32.31;19.89;94054.97;5082242;28;20059;-33
2022/10/31 08:36:23;;;;;;;6.30;3.20;;;;;;;32.71;19.86;94060.84;5084504;28;20095;-34
2022/10/31 08:38:48;;;;;;;4.45;3.28;;;;;;;33.00;19.89;94057.19;5082124;28;20039;-34
2022/10/31 08:41:14;;;;;;;6.28;3.92;;;;;;;33.10;19.40;94048.78;5066585;28;20032;-34
2022/10/31 08:43:40;;;;;;;6.35;3.10;;;;;;;33.31;19.45;94052.78;5082519;28;20472;-34
2022/10/31 08:46:05;;;;;;;4.30;3.35;;;;;;;33.23;19.17;94053.34;5084159;28;20036;-34
2022/10/31 08:48:31;;;;;;;5.53;2.75;;;;;;;32.77;20.09;94055.97;5081133;28;20107;-34
2022/10/31 08:50:58;;;;;;;6.32;2.97;;;;;;;32.60;20.26;94059.19;5084876;28;20031;-34
2022/10/31 08:53:24;;;;;;;6.03;2.67;;;;;;;32.72;20.16;94060.19;5086001;28;20024;-34
2022/10/31 08:55:49;;;;;;;5.30;2.75;;;;;;;32.84;19.68;94059.69;5088890;28;20016;-34
2022/10/31 08:58:19;;;;;;;7.03;3.20;;;;;;;32.61;19.81;94064.25;5095863;28;20482;-33
2022/10/31 09:00:46;;;;;;;6.20;2.92;;;;;;;32.29;19.59;94057.78;5089381;28;20031;-33
2022/10/31 09:03:16;;;;;;;5.82;3.25;;;;;;;33.04;19.83;94059.41;5099296;28;20015;-34
2022/10/31 09:05:42;;;;;;;4.13;2.95;;;;;;;32.88;20.16;94054.78;5097020;28;20032;-34
2022/10/31 09:08:08;;;;;;;6.47;3.70;;;;;;;33.30;19.52;94048.44;5091567;28;20113;-34
2022/10/31 09:10:34;;;;;;;3.90;3.10;;;;;;;33.17;19.56;94053.22;5086063;28;20062;-33
2022/10/31 09:13:09;;;;;;;7.68;3.50;;;;;;;32.86;20.06;94057.59;5089226;28;20055;-33
2022/10/31 09:15:38;;;;;;;5.03;3.28;;;;;;;33.06;20.00;94056.56;5088312;28;20452;-34
2022/10/31 09:18:03;;;;;;;;;;;;;;;33.24;19.48;94054.78;5091169;28;20024;-34
2022/10/31 09:20:30;;;;;;;5.13;3.13;;;;;;;33.42;19.23;94048.66;5087977;28;19930;-34
2022/10/31 09:23:25;;;;;;;6.32;3.42;;;;;;;33.58;19.25;94048.97;5091266;28;20043;-34
2022/10/31 09:25:52;;;;;;;6.80;3.38;;;;;;;33.13;19.73;94047.44;5075794;28;20036;-35
2022/10/31 09:28:20;;;;;;;5.82;3.47;;;;;;;33.33;19.39;94044.94;5090790;28;20042;-34
2022/10/31 09:30:47;;;;;;;7.67;3.60;;;;;;;32.89;20.04;94053.38;5093510;28;20031;-33
2022/10/31 09:33:13;;;;;;;7.40;3.67;;;;;;;33.47;19.54;94045.19;5091085;28;20067;-34
2022/10/31 09:35:39;;;;;;;5.22;3.08;;;;;;;33.61;19.23;94042.59;5086876;28;20024;-34
2022/10/31 09:38:10;;;;;;;5.90;3.40;;;;;;;33.38;18.99;94037.88;5086171;28;20114;-34
2022/10/31 09:40:40;;;;;;;4.35;2.88;;;;;;;33.17;19.58;94041.06;5090323;28;20495;-33
2022/10/31 09:43:32;;;;;;;4.75;3.13;;;;;;;33.06;19.46;94034.41;5074126;28;20101;-34
2022/10/31 09:46:12;;;;;;;7.75;2.90;;;;;;;32.88;19.81;94046.19;5094634;28;20559;-33
2022/10/31 09:49:08;;;;;;;5.75;3.30;;;;;;;33.05;20.10;94035.09;5090003;28;20032;-33
2022/10/31 09:51:37;;;;;;;8.13;3.65;;;;;;;33.42;19.66;94028.63;5084930;28;20149;-34
2022/10/31 09:54:25;;;;;;;4.00;3.35;;;;;;;33.44;19.27;94028.69;5091375;28;20415;-34
2022/10/31 09:56:51;;;;;;;3.88;3.13;;;;;;;33.31;19.51;94033.44;5088800;28;20035;-33
2022/10/31 09:59:35;;;;;;;16.20;3.20;;;;;;;33.03;19.48;94018.59;5087999;28;20032;-34
2022/10/31 10:02:12;;;;;;;5.85;3.08;;;;;;;33.19;19.79;94032.50;5070591;28;20035;-32
2022/10/31 10:04:39;;;;;;;5.10;2.10;;;;;;;33.35;19.13;94027.09;5090498;28;20133;-41
2022/10/31 10:07:24;;;;;;;5.30;2.65;;;;;;;33.45;19.20;94027.25;5084789;28;20048;-33
2022/10/31 10:09:50;;;;;;;6.00;2.60;;;;;;;33.31;19.02;94018.44;5089687;28;20500;-33
2022/10/31 10:12:24;;;;;;;5.57;3.05;;;;;;;32.73;19.83;94023.72;5079478;28;20043;-33
2022/10/31 10:15:21;;;;;;;5.25;2.85;;;;;;;33.04;19.58;94022.19;5089486;28;20597;-34
2022/10/31 10:17:54;;;;;;;5.38;3.05;;;;;;;33.10;19.14;94011.59;5087836;28;20093;-34
2022/10/31 10:20:31;;;;;;;5.22;2.53;;;;;;;32.97;19.72;94014.88;5086564;28;20089;-44
2022/10/31 10:23:00;;;;;;;9.00;3.30;;;;;;;33.00;19.97;94007.81;5072673;28;20058;-40
2022/10/31 10:25:35;;;;;;;4.80;3.28;;;;;;;33.12;19.94;94005.19;5089561;28;20487;-40
2022/10/31 10:28:18;;;;;;;5.05;2.72;;;;;;;31.66;20.83;94001.31;5076212;28;20069;-48
2022/10/31 10:31:08;;;;;;;7.60;3.35;;;;;;;32.02;20.70;94001.44;5087117;28;20062;-43
2022/10/31 10:33:38;;;;;;;6.60;3.47;;;;;;;31.83;20.78;93991.00;5085623;28;20024;-38
2022/10/31 10:36:06;;;;;;;6.75;3.42;;;;;;;31.33;21.43;93999.03;5070538;28;20073;-42
2022/10/31 10:38:32;;;;;;;7.28;3.15;;;;;;;31.63;20.69;93979.81;5068302;28;20038;-42
2022/10/31 10:40:58;;;;;;;9.45;4.00;;;;;;;30.84;22.03;93977.03;5088905;28;20040;-46
2022/10/31 10:43:25;;;;;;;5.75;3.40;;;;;;;30.56;22.40;93979.13;5073993;28;20388;-43
2022/10/31 10:48:56;;;;;;;4.60;2.22;;;;;;;30.93;22.20;93978.75;5087330;28;20530;-43
2022/10/31 10:51:46;;;;;;;5.78;3.40;;;;;;;30.97;22.45;93978.84;5089260;28;20027;-42
2022/10/31 10:54:42;;;;;;;7.85;2.35;;;;;;;31.08;21.67;93968.44;5055613;28;20565;-41
2022/10/31 10:57:43;;;;;;;8.25;2.60;;;;;;;31.28;21.69;93963.22;5090483;28;20120;-43
2022/10/31 11:00:29;;;;;;;6.38;3.33;;;;;;;31.14;21.94;93969.34;4992824;28;20072;-43
2022/10/31 11:02:55;;;;;;;6.57;2.15;;;;;;;31.09;21.55;93964.19;5085087;28;20045;-42
2022/10/31 11:05:30;;;;;;;3.10;2.03;;;;;;;31.21;22.26;93962.34;5090909;28;20055;-42
2022/10/31 11:07:55;;;;;;;12.57;2.60;;;;;;;31.68;21.16;93961.41;5073327;28;20041;-42
2022/10/31 11:10:21;;;;;;;4.68;2.80;;;;;;;31.43;20.63;93953.66;5090432;28;20028;-44
2022/10/31 11:13:15;;;;;;;6.70;2.00;;;;;;;31.42;21.55;93958.63;5093976;28;20491;-42
2022/10/31 11:15:59;;;;;;;5.60;2.15;;;;;;;31.47;21.25;93955.88;5088112;28;20046;-43
2022/10/31 11:18:28;;;;;;;6.03;1.95;;;;;;;31.44;20.86;93960.81;5085456;28;20032;-36
2022/10/31 11:20:56;;;;;;;3.33;1.20;;;;;;;31.73;20.62;93951.50;5090558;28;20404;-36
2022/10/31 11:23:24;;;;;;;3.80;1.17;;;;;;;31.35;20.46;93957.00;5087766;28;20032;-34
2022/10/31 11:26:01;;;;;;;3.40;1.50;;;;;;;31.38;20.77;93954.94;5090776;28;20119;-37
2022/10/31 11:28:29;;;;;;;5.28;2.42;;;;;;;31.06;21.36;93954.09;5078534;28;20039;-36
2022/10/31 11:30:58;;;;;;;5.38;1.50;;;;;;;31.04;20.66;93939.81;5090744;28;20411;-37
2022/10/31 11:33:30;;;;;;;9.70;1.70;;;;;;;30.75;21.61;93946.88;5059935;28;20158;-36
2022/10/31 11:35:56;;;;;;;9.27;1.50;;;;;;;30.53;21.70;93943.44;5095242;28;20020;-36
2022/10/31 11:38:25;;;;;;;33.25;3.95;;;;;;;30.18;21.99;93938.88;5089433;28;20078;-37
2022/10/31 11:41:04;;;;;;;28.67;3.95;;;;;;;29.93;22.38;93936.72;5081359;28;20031;-37
2022/10/31 11:43:30;;;;;;;4.53;2.40;;;;;;;29.21;23.45;93938.75;5085278;28;20024;-37
2022/10/31 11:45:56;;;;;;;2.33;1.70;;;;;;;28.90;23.83;93938.38;5076620;28;20035;-36